createdAt,value
2023-03-06T00:00:09.362Z,61.24
2023-03-06T00:00:20.145Z,61.34
2023-03-06T00:00:31.205Z,61.34
2023-03-06T00:00:42.174Z,61.34
2023-03-06T00:00:52.946Z,61.34
2023-03-06T00:01:04.035Z,61.34
2023-03-06T00:01:14.964Z,61.34
2023-03-06T00:01:25.741Z,61.44
2023-03-06T00:01:36.782Z,61.44
2023-03-06T00:01:47.754Z,61.44
2023-03-06T00:01:58.521Z,61.44
2023-03-06T00:02:09.640Z,61.44
2023-03-06T00:02:20.616Z,61.44
2023-03-06T00:02:31.369Z,61.55
2023-03-06T00:02:42.417Z,61.55
2023-03-06T00:02:53.384Z,61.55
2023-03-06T00:03:04.170Z,61.55
2023-03-06T00:03:15.222Z,61.65
2023-03-06T00:03:26.277Z,61.65
2023-03-06T00:03:37.026Z,61.65
2023-03-06T00:03:48.160Z,61.65
2023-03-06T00:03:59.120Z,61.65
2023-03-06T00:04:09.994Z,61.76
2023-03-06T00:04:21.024Z,61.76
2023-03-06T00:04:31.985Z,61.86
2023-03-06T00:04:42.765Z,61.86
2023-03-06T00:04:53.824Z,61.86
2023-03-06T00:05:04.987Z,61.86
2023-03-06T00:05:15.716Z,61.86
2023-03-06T00:05:26.837Z,61.86
2023-03-06T00:05:37.813Z,61.96
2023-03-06T00:05:48.608Z,61.96
2023-03-06T00:05:59.398Z,61.96
2023-03-06T00:06:09.974Z,61.86
2023-03-06T00:06:20.775Z,61.96
2023-03-06T00:06:31.832Z,61.86
2023-03-06T00:06:42.828Z,61.86
2023-03-06T00:06:53.607Z,61.86
2023-03-06T00:07:04.662Z,61.86
2023-03-06T00:07:15.626Z,61.86
2023-03-06T00:07:26.393Z,61.96
2023-03-06T00:07:37.438Z,61.96
2023-03-06T00:07:48.409Z,61.96
2023-03-06T00:07:59.180Z,61.96
2023-03-06T00:08:10.259Z,61.96
2023-03-06T00:08:21.200Z,61.96
2023-03-06T00:08:31.958Z,61.96
2023-03-06T00:08:43.002Z,61.96
2023-03-06T00:08:54.019Z,61.96
2023-03-06T00:09:04.960Z,62.06
2023-03-06T00:09:15.995Z,62.06
2023-03-06T00:09:26.974Z,62.16
2023-03-06T00:09:37.757Z,62.16
2023-03-06T00:09:48.839Z,62.16
2023-03-06T00:09:59.814Z,62.27
2023-03-06T00:10:10.597Z,62.27
2023-03-06T00:10:21.689Z,62.27
2023-03-06T00:10:32.676Z,62.27
2023-03-06T00:10:43.448Z,62.27
2023-03-06T00:10:54.496Z,62.37
2023-03-06T00:11:05.534Z,62.37
2023-03-06T00:11:16.261Z,62.37
2023-03-06T00:11:27.311Z,62.48
2023-03-06T00:11:38.299Z,62.48
2023-03-06T00:11:49.068Z,62.58
2023-03-06T00:12:00.134Z,62.58
2023-03-06T00:12:11.142Z,62.58
2023-03-06T00:12:21.967Z,62.58
2023-03-06T00:12:32.439Z,62.58
2023-03-06T00:12:43.406Z,62.58
2023-03-06T00:12:54.169Z,62.68
2023-03-06T00:13:05.269Z,62.58
2023-03-06T00:13:16.216Z,62.68
2023-03-06T00:13:27.057Z,62.68
2023-03-06T00:13:38.140Z,62.68
2023-03-06T00:13:49.088Z,62.68
2023-03-06T00:13:59.857Z,62.79
2023-03-06T00:14:10.899Z,62.79
2023-03-06T00:14:21.873Z,62.79
2023-03-06T00:14:32.638Z,62.89
2023-03-06T00:14:43.682Z,62.89
2023-03-06T00:14:54.689Z,62.89
2023-03-06T00:15:05.840Z,62.89
2023-03-06T00:15:16.312Z,62.89
2023-03-06T00:15:27.296Z,62.89
2023-03-06T00:15:38.053Z,62.89
2023-03-06T00:15:49.190Z,62.89
2023-03-06T00:16:00.200Z,62.89
2023-03-06T00:16:11.019Z,62.89
2023-03-06T00:16:22.085Z,62.99
2023-03-06T00:16:33.076Z,62.99
2023-03-06T00:16:43.799Z,62.99
2023-03-06T00:16:54.885Z,62.99
2023-03-06T00:17:05.835Z,62.99
2023-03-06T00:17:16.605Z,62.99
2023-03-06T00:17:27.720Z,62.99
2023-03-06T00:17:38.644Z,62.99
2023-03-06T00:17:49.419Z,62.99
2023-03-06T00:18:00.463Z,62.99
2023-03-06T00:18:11.454Z,62.99
2023-03-06T00:18:22.228Z,62.99
2023-03-06T00:18:33.267Z,62.99
2023-03-06T00:18:44.252Z,63.10
2023-03-06T00:18:55.009Z,63.10
2023-03-06T00:19:06.097Z,63.10
2023-03-06T00:19:17.067Z,63.10
2023-03-06T00:19:27.879Z,63.10
2023-03-06T00:19:38.879Z,63.10
2023-03-06T00:19:49.862Z,63.10
2023-03-06T00:20:00.722Z,63.10
2023-03-06T00:20:11.186Z,63.20
2023-03-06T00:20:22.159Z,63.10
2023-03-06T00:20:33.016Z,63.20
2023-03-06T00:20:44.036Z,63.20
2023-03-06T00:20:54.978Z,63.20
2023-03-06T00:21:05.747Z,63.20
2023-03-06T00:21:16.801Z,63.20
2023-03-06T00:21:27.767Z,63.20
2023-03-06T00:21:38.563Z,63.20
2023-03-06T00:21:49.586Z,63.31
2023-03-06T00:22:00.599Z,63.31
2023-03-06T00:22:11.374Z,63.31
2023-03-06T00:22:22.413Z,63.31
2023-03-06T00:22:33.394Z,63.41
2023-03-06T00:22:44.224Z,63.51
2023-03-06T00:22:54.716Z,63.51
2023-03-06T00:23:05.668Z,63.51
2023-03-06T00:23:16.458Z,63.51
2023-03-06T00:23:27.512Z,63.51
2023-03-06T00:23:38.468Z,63.62
2023-03-06T00:23:49.286Z,63.62
2023-03-06T00:24:00.294Z,63.62
2023-03-06T00:24:11.261Z,63.51
2023-03-06T00:24:22.031Z,63.51
2023-03-06T00:24:33.076Z,63.51
2023-03-06T00:24:44.102Z,63.51
2023-03-06T00:24:54.838Z,63.51
2023-03-06T00:25:05.980Z,63.51
2023-03-06T00:25:16.898Z,63.51
2023-03-06T00:25:27.720Z,63.51
2023-03-06T00:25:38.929Z,63.51
2023-03-06T00:25:49.344Z,63.62
2023-03-06T00:26:00.127Z,63.62
2023-03-06T00:26:11.229Z,63.62
2023-03-06T00:26:22.179Z,63.62
2023-03-06T00:26:33.155Z,63.62
2023-03-06T00:26:44.213Z,63.62
2023-03-06T00:26:55.180Z,63.62
2023-03-06T00:27:05.939Z,63.62
2023-03-06T00:27:17.007Z,63.62
2023-03-06T00:27:28.027Z,63.51
2023-03-06T00:27:38.746Z,63.51
2023-03-06T00:27:49.813Z,63.41
2023-03-06T00:28:00.390Z,63.41
2023-03-06T00:28:11.184Z,63.41
2023-03-06T00:28:21.705Z,63.31
2023-03-06T00:28:32.670Z,63.31
2023-03-06T00:28:43.563Z,63.31
2023-03-06T00:28:54.024Z,63.41
2023-03-06T00:29:04.997Z,63.31
2023-03-06T00:29:15.960Z,63.31
2023-03-06T00:29:27.016Z,63.31
2023-03-06T00:29:38.017Z,63.31
2023-03-06T00:29:48.756Z,63.31
2023-03-06T00:29:59.812Z,63.31
2023-03-06T00:30:10.800Z,63.31
2023-03-06T00:30:21.573Z,63.31
2023-03-06T00:30:32.621Z,63.31
2023-03-06T00:30:43.616Z,63.31
2023-03-06T00:30:54.382Z,63.31
2023-03-06T00:31:05.629Z,63.31
2023-03-06T00:31:16.119Z,63.31
2023-03-06T00:31:26.864Z,63.31
2023-03-06T00:31:37.972Z,63.31
2023-03-06T00:31:48.920Z,63.31
2023-03-06T00:31:59.740Z,63.41
2023-03-06T00:32:10.780Z,63.41
2023-03-06T00:32:21.763Z,63.41
2023-03-06T00:32:32.588Z,63.41
2023-03-06T00:32:43.050Z,63.51
2023-03-06T00:32:54.019Z,63.51
2023-03-06T00:33:04.786Z,63.51
2023-03-06T00:33:15.826Z,63.51
2023-03-06T00:33:26.812Z,63.51
2023-03-06T00:33:37.637Z,63.51
2023-03-06T00:33:48.663Z,63.51
2023-03-06T00:33:59.644Z,63.51
2023-03-06T00:34:10.420Z,63.51
2023-03-06T00:34:21.454Z,63.51
2023-03-06T00:34:32.437Z,63.51
2023-03-06T00:34:43.269Z,63.51
2023-03-06T00:34:53.746Z,63.51
2023-03-06T00:35:04.721Z,63.51
2023-03-06T00:35:15.531Z,63.51
2023-03-06T00:35:26.572Z,63.51
2023-03-06T00:35:37.536Z,63.51
2023-03-06T00:35:48.354Z,63.51
2023-03-06T00:35:59.358Z,63.62
2023-03-06T00:36:10.342Z,63.62
2023-03-06T00:36:21.090Z,63.62
2023-03-06T00:36:32.190Z,63.72
2023-03-06T00:36:43.130Z,63.72
2023-03-06T00:36:53.900Z,63.72
2023-03-06T00:37:04.949Z,63.72
2023-03-06T00:37:15.924Z,63.72
2023-03-06T00:37:26.708Z,63.72
2023-03-06T00:37:37.730Z,63.72
2023-03-06T00:37:48.766Z,63.72
2023-03-06T00:37:59.761Z,63.72
2023-03-06T00:38:10.239Z,63.72
2023-03-06T00:38:21.233Z,63.82
2023-03-06T00:38:31.996Z,63.82
2023-03-06T00:38:43.048Z,63.82
2023-03-06T00:38:54.039Z,63.82
2023-03-06T00:39:04.840Z,63.93
2023-03-06T00:39:15.860Z,63.82
2023-03-06T00:39:26.843Z,63.93
2023-03-06T00:39:37.613Z,63.93
2023-03-06T00:39:48.672Z,63.93
2023-03-06T00:39:59.644Z,63.93
2023-03-06T00:40:10.435Z,63.82
2023-03-06T00:40:21.488Z,63.82
2023-03-06T00:40:32.631Z,63.82
2023-03-06T00:40:43.365Z,63.82
2023-03-06T00:40:54.449Z,63.82
2023-03-06T00:41:05.445Z,63.72
2023-03-06T00:41:16.197Z,63.72
2023-03-06T00:41:27.244Z,63.72
2023-03-06T00:41:38.225Z,63.72
2023-03-06T00:41:48.982Z,63.72
2023-03-06T00:42:00.137Z,63.72
2023-03-06T00:42:11.076Z,63.72
2023-03-06T00:42:21.846Z,63.72
2023-03-06T00:42:32.898Z,63.82
2023-03-06T00:42:43.878Z,63.93
2023-03-06T00:42:54.669Z,64.03
2023-03-06T00:43:05.745Z,64.03
2023-03-06T00:43:16.756Z,64.14
2023-03-06T00:43:27.463Z,64.14
2023-03-06T00:43:38.512Z,64.14
2023-03-06T00:43:49.475Z,64.14
2023-03-06T00:44:00.262Z,64.24
2023-03-06T00:44:11.304Z,64.14
2023-03-06T00:44:22.278Z,64.14
2023-03-06T00:44:33.172Z,64.14
2023-03-06T00:44:44.253Z,64.03
2023-03-06T00:44:55.192Z,64.03
2023-03-06T00:45:05.958Z,64.03
2023-03-06T00:45:17.016Z,64.03
2023-03-06T00:45:28.014Z,64.03
2023-03-06T00:45:38.824Z,64.03
2023-03-06T00:45:49.428Z,64.03
2023-03-06T00:46:00.555Z,64.14
2023-03-06T00:46:11.354Z,64.14
2023-03-06T00:46:22.356Z,64.24
2023-03-06T00:46:33.330Z,64.34
2023-03-06T00:46:44.095Z,64.34
2023-03-06T00:46:55.150Z,64.45
2023-03-06T00:47:06.232Z,64.45
2023-03-06T00:47:16.962Z,64.55
2023-03-06T00:47:28.016Z,64.58
2023-03-06T00:47:39.000Z,64.69
2023-03-06T00:47:49.745Z,64.65
2023-03-06T00:48:00.837Z,64.79
2023-03-06T00:48:11.797Z,64.76
2023-03-06T00:48:22.575Z,64.86
2023-03-06T00:48:33.638Z,64.89
2023-03-06T00:48:44.642Z,64.86
2023-03-06T00:48:55.379Z,64.86
2023-03-06T00:49:06.440Z,64.86
2023-03-06T00:49:17.416Z,64.89
2023-03-06T00:49:28.186Z,64.86
2023-03-06T00:49:39.229Z,64.86
2023-03-06T00:49:50.198Z,64.86
2023-03-06T00:50:01.036Z,64.97
2023-03-06T00:50:11.540Z,64.97
2023-03-06T00:50:22.486Z,65.00
2023-03-06T00:50:33.273Z,65.00
2023-03-06T00:50:44.333Z,64.97
2023-03-06T00:50:55.321Z,65.07
2023-03-06T00:51:06.098Z,65.07
2023-03-06T00:51:17.155Z,65.07
2023-03-06T00:51:28.111Z,65.20
2023-03-06T00:51:38.975Z,65.17
2023-03-06T00:51:49.472Z,65.20
2023-03-06T00:52:00.447Z,65.20
2023-03-06T00:52:11.212Z,65.20
2023-03-06T00:52:22.255Z,65.20
2023-03-06T00:52:33.285Z,65.20
2023-03-06T00:52:44.029Z,65.20
2023-03-06T00:52:55.084Z,65.20
2023-03-06T00:53:06.062Z,65.20
2023-03-06T00:53:16.801Z,65.20
2023-03-06T00:53:27.851Z,65.20
2023-03-06T00:53:38.851Z,65.20
2023-03-06T00:53:49.607Z,65.31
2023-03-06T00:54:00.654Z,65.31
2023-03-06T00:54:11.613Z,65.31
2023-03-06T00:54:22.383Z,65.31
2023-03-06T00:54:33.456Z,65.31
2023-03-06T00:54:44.425Z,65.41
2023-03-06T00:54:55.190Z,65.41
2023-03-06T00:55:06.284Z,65.41
2023-03-06T00:55:17.243Z,65.41
2023-03-06T00:55:27.994Z,65.41
2023-03-06T00:55:39.082Z,65.41
2023-03-06T00:55:50.028Z,65.52
2023-03-06T00:56:00.786Z,65.52
2023-03-06T00:56:11.876Z,65.52
2023-03-06T00:56:22.852Z,65.52
2023-03-06T00:56:33.700Z,65.52
2023-03-06T00:56:44.190Z,65.52
2023-03-06T00:56:55.148Z,65.52
2023-03-06T00:57:05.968Z,65.52
2023-03-06T00:57:16.979Z,65.52
2023-03-06T00:57:27.967Z,65.52
2023-03-06T00:57:38.762Z,65.62
2023-03-06T00:57:49.288Z,65.62
2023-03-06T00:58:00.271Z,65.62
2023-03-06T00:58:11.034Z,65.62
2023-03-06T00:58:22.104Z,65.62
2023-03-06T00:58:33.125Z,65.62
2023-03-06T00:58:43.869Z,65.62
2023-03-06T00:58:54.916Z,65.62
2023-03-06T00:59:05.884Z,65.62
2023-03-06T00:59:16.647Z,65.62
2023-03-06T00:59:27.700Z,65.62
2023-03-06T00:59:38.694Z,65.62
2023-03-06T00:59:49.445Z,65.62
2023-03-06T01:00:00.499Z,65.62
2023-03-06T01:00:11.561Z,65.72
2023-03-06T01:00:22.288Z,65.72
2023-03-06T01:00:33.342Z,65.72
2023-03-06T01:00:44.390Z,65.83
2023-03-06T01:00:55.142Z,65.83
2023-03-06T01:01:06.193Z,65.83
2023-03-06T01:01:17.301Z,65.72
2023-03-06T01:01:28.119Z,65.83
2023-03-06T01:01:39.178Z,65.83
2023-03-06T01:01:50.278Z,65.72
2023-03-06T01:02:01.032Z,65.83
2023-03-06T01:02:12.115Z,65.72
2023-03-06T01:02:23.118Z,65.72
2023-03-06T01:02:33.989Z,65.83
2023-03-06T01:02:44.503Z,65.83
2023-03-06T01:02:55.453Z,65.83
2023-03-06T01:03:06.275Z,65.83
2023-03-06T01:03:17.319Z,65.83
2023-03-06T01:03:28.270Z,65.83
2023-03-06T01:03:39.026Z,65.83
2023-03-06T01:03:50.078Z,65.93
2023-03-06T01:04:01.106Z,65.93
2023-03-06T01:04:11.873Z,65.93
2023-03-06T01:04:22.918Z,65.93
2023-03-06T01:04:33.892Z,65.83
2023-03-06T01:04:44.669Z,65.83
2023-03-06T01:04:55.793Z,65.83
2023-03-06T01:05:06.748Z,65.83
2023-03-06T01:05:17.512Z,65.83
2023-03-06T01:05:28.598Z,65.83
2023-03-06T01:05:39.563Z,65.83
2023-03-06T01:05:50.342Z,65.83
2023-03-06T01:06:01.422Z,65.83
2023-03-06T01:06:12.377Z,65.93
2023-03-06T01:06:23.183Z,65.93
2023-03-06T01:06:33.721Z,65.93
2023-03-06T01:06:44.673Z,65.93
2023-03-06T01:06:55.683Z,65.93
2023-03-06T01:07:06.756Z,66.03
2023-03-06T01:07:17.696Z,66.03
2023-03-06T01:07:28.478Z,66.03
2023-03-06T01:07:39.603Z,66.03
2023-03-06T01:07:50.546Z,66.03
2023-03-06T01:08:01.309Z,66.03
2023-03-06T01:08:12.381Z,66.03
2023-03-06T01:08:23.334Z,66.03
2023-03-06T01:08:34.103Z,66.03
2023-03-06T01:08:45.144Z,66.03
2023-03-06T01:08:56.115Z,66.03
2023-03-06T01:09:06.966Z,66.03
2023-03-06T01:09:17.960Z,66.03
2023-03-06T01:09:28.928Z,66.03
2023-03-06T01:09:39.721Z,66.03
2023-03-06T01:09:50.787Z,66.03
2023-03-06T01:10:01.758Z,66.03
2023-03-06T01:10:12.521Z,66.03
2023-03-06T01:10:23.576Z,66.03
2023-03-06T01:10:34.560Z,66.03
2023-03-06T01:10:45.329Z,66.03
2023-03-06T01:10:56.376Z,66.03
2023-03-06T01:11:07.377Z,66.03
2023-03-06T01:11:18.159Z,66.03
2023-03-06T01:11:29.203Z,66.03
2023-03-06T01:11:40.171Z,66.03
2023-03-06T01:11:50.937Z,66.14
2023-03-06T01:12:02.002Z,66.14
2023-03-06T01:12:12.994Z,66.14
2023-03-06T01:12:23.855Z,66.14
2023-03-06T01:12:34.839Z,66.14
2023-03-06T01:12:45.809Z,66.14
2023-03-06T01:12:56.581Z,66.14
2023-03-06T01:13:07.646Z,66.14
2023-03-06T01:13:18.606Z,66.14
2023-03-06T01:13:29.363Z,66.14
2023-03-06T01:13:40.480Z,66.14
2023-03-06T01:13:51.423Z,66.14
2023-03-06T01:14:02.377Z,66.14
2023-03-06T01:14:13.445Z,66.14
2023-03-06T01:14:24.440Z,66.14
2023-03-06T01:14:35.197Z,66.14
2023-03-06T01:14:46.248Z,66.14
2023-03-06T01:14:57.297Z,66.14
2023-03-06T01:15:08.027Z,66.14
2023-03-06T01:15:19.096Z,66.14
2023-03-06T01:15:30.081Z,66.03
2023-03-06T01:15:40.832Z,66.03
2023-03-06T01:15:51.871Z,66.03
2023-03-06T01:16:02.929Z,66.03
2023-03-06T01:16:13.687Z,66.03
2023-03-06T01:16:24.778Z,66.03
2023-03-06T01:16:35.783Z,66.14
2023-03-06T01:16:46.588Z,66.14
2023-03-06T01:16:57.583Z,66.14
2023-03-06T01:17:08.568Z,66.14
2023-03-06T01:17:19.322Z,66.14
2023-03-06T01:17:30.374Z,66.14
2023-03-06T01:17:41.370Z,66.14
2023-03-06T01:17:52.135Z,66.14
2023-03-06T01:18:03.189Z,66.14
2023-03-06T01:18:14.182Z,66.14
2023-03-06T01:18:24.954Z,66.14
2023-03-06T01:18:36.010Z,66.14
2023-03-06T01:18:46.968Z,66.14
2023-03-06T01:18:57.742Z,66.14
2023-03-06T01:19:08.809Z,66.14
2023-03-06T01:19:19.778Z,66.14
2023-03-06T01:19:30.537Z,66.24
2023-03-06T01:19:41.124Z,66.24
2023-03-06T01:19:52.102Z,66.24
2023-03-06T01:20:03.063Z,66.24
2023-03-06T01:20:14.117Z,66.14
2023-03-06T01:20:25.184Z,66.24
2023-03-06T01:20:35.917Z,66.14
2023-03-06T01:20:46.964Z,66.14
2023-03-06T01:20:57.950Z,66.14
2023-03-06T01:21:08.743Z,66.14
2023-03-06T01:21:19.774Z,66.14
2023-03-06T01:21:30.787Z,66.14
2023-03-06T01:21:41.566Z,66.14
2023-03-06T01:21:52.097Z,66.14
2023-03-06T01:22:03.043Z,66.14
2023-03-06T01:22:13.856Z,66.14
2023-03-06T01:22:24.863Z,66.14
2023-03-06T01:22:35.831Z,66.14
2023-03-06T01:22:46.600Z,66.14
2023-03-06T01:22:57.668Z,66.14
2023-03-06T01:23:08.644Z,66.14
2023-03-06T01:23:19.466Z,66.14
2023-03-06T01:23:30.500Z,66.14
2023-03-06T01:23:41.479Z,66.14
2023-03-06T01:23:52.242Z,66.14
2023-03-06T01:24:03.293Z,66.14
2023-03-06T01:24:14.256Z,66.14
2023-03-06T01:24:25.044Z,66.14
2023-03-06T01:24:36.100Z,66.24
2023-03-06T01:24:47.083Z,66.24
2023-03-06T01:24:57.873Z,66.24
2023-03-06T01:25:08.914Z,66.24
2023-03-06T01:25:19.890Z,66.35
2023-03-06T01:25:30.657Z,66.35
2023-03-06T01:25:41.720Z,66.24
2023-03-06T01:25:52.687Z,66.24
2023-03-06T01:26:03.489Z,66.35
2023-03-06T01:26:14.513Z,66.24
2023-03-06T01:26:25.496Z,66.35
2023-03-06T01:26:36.274Z,66.35
2023-03-06T01:26:47.328Z,66.35
2023-03-06T01:26:58.295Z,66.35
2023-03-06T01:27:09.121Z,66.35
2023-03-06T01:27:20.149Z,66.35
2023-03-06T01:27:31.125Z,66.35
2023-03-06T01:27:41.908Z,66.35
2023-03-06T01:27:52.967Z,66.35
2023-03-06T01:28:03.925Z,66.35
2023-03-06T01:28:14.691Z,66.35
2023-03-06T01:28:25.783Z,66.35
2023-03-06T01:28:36.722Z,66.35
2023-03-06T01:28:47.501Z,66.35
2023-03-06T01:28:58.566Z,66.35
2023-03-06T01:29:09.515Z,66.38
2023-03-06T01:29:20.311Z,66.35
2023-03-06T01:29:31.351Z,66.35
2023-03-06T01:29:42.350Z,66.35
2023-03-06T01:29:53.110Z,66.35
2023-03-06T01:30:04.163Z,66.35
2023-03-06T01:30:15.179Z,66.35
2023-03-06T01:30:25.968Z,66.35
2023-03-06T01:30:37.013Z,66.35
2023-03-06T01:30:47.988Z,66.35
2023-03-06T01:30:58.828Z,66.35
2023-03-06T01:31:09.820Z,66.38
2023-03-06T01:31:20.830Z,66.35
2023-03-06T01:31:31.853Z,66.35
2023-03-06T01:31:42.972Z,66.35
2023-03-06T01:31:53.989Z,66.35
2023-03-06T01:32:04.952Z,66.35
2023-03-06T01:32:15.483Z,66.35
2023-03-06T01:32:26.470Z,66.35
2023-03-06T01:32:37.272Z,66.35
2023-03-06T01:32:47.806Z,66.35
2023-03-06T01:32:58.757Z,66.35
2023-03-06T01:33:09.519Z,66.35
2023-03-06T01:33:20.593Z,66.35
2023-03-06T01:33:31.555Z,66.38
2023-03-06T01:33:42.341Z,66.35
2023-03-06T01:33:53.393Z,66.35
2023-03-06T01:34:04.378Z,66.24
2023-03-06T01:34:15.204Z,66.24
2023-03-06T01:34:26.204Z,66.24
2023-03-06T01:34:37.182Z,66.24
2023-03-06T01:34:47.938Z,66.14
2023-03-06T01:34:58.997Z,66.14
2023-03-06T01:35:09.971Z,66.14
2023-03-06T01:35:20.907Z,66.03
2023-03-06T01:35:31.472Z,66.03
2023-03-06T01:35:42.462Z,66.03
2023-03-06T01:35:53.242Z,65.93
2023-03-06T01:36:04.245Z,65.93
2023-03-06T01:36:15.236Z,65.93
2023-03-06T01:36:26.007Z,66.03
2023-03-06T01:36:36.523Z,65.93
2023-03-06T01:36:47.494Z,65.93
2023-03-06T01:36:58.284Z,65.93
2023-03-06T01:37:09.364Z,65.83
2023-03-06T01:37:20.319Z,65.93
2023-03-06T01:37:31.093Z,65.93
2023-03-06T01:37:42.120Z,66.03
2023-03-06T01:37:53.111Z,66.03
2023-03-06T01:38:03.864Z,66.03
2023-03-06T01:38:14.938Z,66.14
2023-03-06T01:38:25.899Z,66.14
2023-03-06T01:38:36.677Z,66.14
2023-03-06T01:38:47.753Z,66.17
2023-03-06T01:38:58.703Z,66.24
2023-03-06T01:39:09.471Z,66.24
2023-03-06T01:39:20.552Z,66.24
2023-03-06T01:39:31.516Z,66.24
2023-03-06T01:39:42.277Z,66.35
2023-03-06T01:39:53.343Z,66.44
2023-03-06T01:40:04.312Z,66.55
2023-03-06T01:40:15.091Z,66.55
2023-03-06T01:40:26.137Z,66.55
2023-03-06T01:40:37.093Z,66.44
2023-03-06T01:40:47.857Z,66.44
2023-03-06T01:40:58.903Z,66.44
2023-03-06T01:41:09.894Z,66.55
2023-03-06T01:41:20.665Z,66.55
2023-03-06T01:41:31.754Z,66.55
2023-03-06T01:41:42.715Z,66.55
2023-03-06T01:41:53.603Z,66.65
2023-03-06T01:42:04.094Z,66.65
2023-03-06T01:42:15.062Z,66.65
2023-03-06T01:42:25.815Z,66.65
2023-03-06T01:42:36.866Z,66.65
2023-03-06T01:42:47.824Z,66.65
2023-03-06T01:42:58.593Z,66.65
2023-03-06T01:43:09.715Z,66.65
2023-03-06T01:43:20.644Z,66.65
2023-03-06T01:43:31.417Z,66.65
2023-03-06T01:43:42.511Z,66.75
2023-03-06T01:43:53.459Z,66.75
2023-03-06T01:44:04.241Z,66.75
2023-03-06T01:44:15.288Z,66.75
2023-03-06T01:44:26.330Z,66.65
2023-03-06T01:44:37.216Z,66.65
2023-03-06T01:44:48.260Z,66.65
2023-03-06T01:44:59.232Z,66.65
2023-03-06T01:45:09.999Z,66.65
2023-03-06T01:45:21.043Z,66.65
2023-03-06T01:45:32.032Z,66.65
2023-03-06T01:45:42.862Z,66.65
2023-03-06T01:45:53.931Z,66.58
2023-03-06T01:46:04.919Z,66.55
2023-03-06T01:46:15.730Z,66.55
2023-03-06T01:46:26.231Z,66.55
2023-03-06T01:46:37.198Z,66.55
2023-03-06T01:46:47.975Z,66.55
2023-03-06T01:46:59.044Z,66.55
2023-03-06T01:47:10.018Z,66.55
2023-03-06T01:47:20.826Z,66.55
2023-03-06T01:47:31.890Z,66.55
2023-03-06T01:47:42.829Z,66.55
2023-03-06T01:47:53.643Z,66.44
2023-03-06T01:48:04.753Z,66.44
2023-03-06T01:48:15.698Z,66.44
2023-03-06T01:48:26.489Z,66.44
2023-03-06T01:48:37.530Z,66.44
2023-03-06T01:48:48.612Z,66.44
2023-03-06T01:48:59.510Z,66.44
2023-03-06T01:49:10.543Z,66.44
2023-03-06T01:49:21.505Z,66.35
2023-03-06T01:49:32.280Z,66.35
2023-03-06T01:49:43.320Z,66.35
2023-03-06T01:49:54.288Z,66.35
2023-03-06T01:50:05.117Z,66.35
2023-03-06T01:50:15.606Z,66.35
2023-03-06T01:50:26.600Z,66.35
2023-03-06T01:50:37.379Z,66.35
2023-03-06T01:50:48.405Z,66.35
2023-03-06T01:50:59.387Z,66.35
2023-03-06T01:51:10.156Z,66.35
2023-03-06T01:51:21.277Z,66.35
2023-03-06T01:51:32.237Z,66.35
2023-03-06T01:51:43.061Z,66.35
2023-03-06T01:51:54.085Z,66.38
2023-03-06T01:52:05.075Z,66.24
2023-03-06T01:52:15.846Z,66.24
2023-03-06T01:52:26.894Z,66.24
2023-03-06T01:52:37.864Z,66.24
2023-03-06T01:52:48.647Z,66.24
2023-03-06T01:52:59.703Z,66.24
2023-03-06T01:53:10.650Z,66.27
2023-03-06T01:53:21.414Z,66.24
2023-03-06T01:53:32.515Z,66.24
2023-03-06T01:53:43.451Z,66.24
2023-03-06T01:53:54.215Z,66.35
2023-03-06T01:54:05.327Z,66.35
2023-03-06T01:54:16.242Z,66.35
2023-03-06T01:54:27.035Z,66.38
2023-03-06T01:54:38.067Z,66.24
2023-03-06T01:54:49.036Z,66.24
2023-03-06T01:55:00.005Z,66.24
2023-03-06T01:55:11.051Z,66.24
2023-03-06T01:55:22.027Z,66.27
2023-03-06T01:55:32.802Z,66.24
2023-03-06T01:55:43.847Z,66.24
2023-03-06T01:55:54.942Z,66.14
2023-03-06T01:56:05.716Z,66.14
2023-03-06T01:56:16.770Z,66.17
2023-03-06T01:56:27.735Z,66.14
2023-03-06T01:56:38.560Z,66.14
2023-03-06T01:56:49.595Z,66.14
2023-03-06T01:57:00.569Z,66.24
2023-03-06T01:57:11.337Z,66.17
2023-03-06T01:57:22.395Z,66.14
2023-03-06T01:57:33.410Z,66.14
2023-03-06T01:57:44.156Z,66.03
2023-03-06T01:57:55.207Z,66.03
2023-03-06T01:58:06.172Z,66.03
2023-03-06T01:58:16.951Z,66.03
2023-03-06T01:58:28.007Z,66.03
2023-03-06T01:58:39.022Z,66.03
2023-03-06T01:58:49.778Z,66.03
2023-03-06T01:59:00.840Z,66.03
2023-03-06T01:59:11.817Z,66.03
2023-03-06T01:59:22.580Z,66.03
2023-03-06T01:59:33.626Z,66.03
2023-03-06T01:59:44.597Z,66.03
2023-03-06T01:59:55.397Z,66.03
2023-03-06T02:00:06.435Z,66.03
2023-03-06T02:00:17.420Z,66.03
2023-03-06T02:00:28.195Z,66.14
2023-03-06T02:00:39.248Z,66.14
2023-03-06T02:00:50.226Z,66.14
2023-03-06T02:01:01.077Z,66.14
2023-03-06T02:01:11.580Z,66.14
2023-03-06T02:01:22.612Z,66.17
2023-03-06T02:01:33.337Z,66.17
2023-03-06T02:01:44.393Z,66.17
2023-03-06T02:01:55.387Z,66.17
2023-03-06T02:02:06.177Z,66.14
2023-03-06T02:02:17.306Z,66.14
2023-03-06T02:02:28.304Z,66.14
2023-03-06T02:02:39.094Z,66.24
2023-03-06T02:02:50.100Z,66.27
2023-03-06T02:03:01.079Z,66.24
2023-03-06T02:03:11.898Z,66.24
2023-03-06T02:03:22.939Z,66.24
2023-03-06T02:03:33.904Z,66.27
2023-03-06T02:03:44.670Z,66.27
2023-03-06T02:03:55.761Z,66.24
2023-03-06T02:04:06.732Z,66.24
2023-03-06T02:04:17.512Z,66.24
2023-03-06T02:04:28.545Z,66.24
2023-03-06T02:04:39.531Z,66.27
2023-03-06T02:04:50.332Z,66.24
2023-03-06T02:05:01.390Z,66.14
2023-03-06T02:05:12.354Z,66.14
2023-03-06T02:05:23.108Z,66.14
2023-03-06T02:05:34.198Z,66.14
2023-03-06T02:05:45.135Z,66.17
2023-03-06T02:05:55.909Z,66.14
2023-03-06T02:06:06.959Z,66.14
2023-03-06T02:06:17.938Z,66.14
2023-03-06T02:06:28.724Z,66.03
2023-03-06T02:06:39.764Z,66.17
2023-03-06T02:06:50.807Z,66.14
2023-03-06T02:07:01.558Z,66.14
2023-03-06T02:07:12.604Z,66.24
2023-03-06T02:07:23.552Z,66.27
2023-03-06T02:07:34.330Z,66.35
2023-03-06T02:07:45.392Z,66.38
2023-03-06T02:07:56.351Z,66.44
2023-03-06T02:08:07.130Z,66.47
2023-03-06T02:08:18.207Z,66.55
2023-03-06T02:08:29.159Z,66.58
2023-03-06T02:08:39.934Z,66.55
2023-03-06T02:08:51.003Z,66.55
2023-03-06T02:09:01.959Z,66.55
2023-03-06T02:09:12.743Z,66.47
2023-03-06T02:09:23.787Z,66.47
2023-03-06T02:09:34.841Z,66.38
2023-03-06T02:09:45.644Z,66.35
2023-03-06T02:09:56.633Z,66.24
2023-03-06T02:10:07.659Z,66.27
2023-03-06T02:10:18.412Z,66.14
2023-03-06T02:10:29.467Z,66.14
2023-03-06T02:10:40.447Z,66.14
2023-03-06T02:10:51.210Z,66.17
2023-03-06T02:11:02.285Z,66.14
2023-03-06T02:11:13.384Z,66.17
2023-03-06T02:11:24.234Z,66.03
2023-03-06T02:11:34.781Z,66.03
2023-03-06T02:11:45.817Z,66.06
2023-03-06T02:11:56.538Z,66.17
2023-03-06T02:12:07.590Z,66.17
2023-03-06T02:12:18.556Z,66.17
2023-03-06T02:12:29.328Z,66.17
2023-03-06T02:12:40.375Z,66.17
2023-03-06T02:12:51.349Z,66.17
2023-03-06T02:13:02.135Z,66.03
2023-03-06T02:13:13.175Z,66.06
2023-03-06T02:13:24.163Z,66.06
2023-03-06T02:13:34.943Z,66.06
2023-03-06T02:13:46.001Z,66.03
2023-03-06T02:13:56.966Z,66.06
2023-03-06T02:14:07.728Z,66.06
2023-03-06T02:14:18.807Z,66.06
2023-03-06T02:14:29.752Z,65.96
2023-03-06T02:14:40.529Z,65.96
2023-03-06T02:14:51.580Z,65.93
2023-03-06T02:15:02.600Z,65.96
2023-03-06T02:15:13.391Z,65.96
2023-03-06T02:15:24.502Z,66.03
2023-03-06T02:15:35.467Z,66.06
2023-03-06T02:15:46.264Z,66.06
2023-03-06T02:15:57.293Z,66.06
2023-03-06T02:16:08.252Z,66.06
2023-03-06T02:16:19.030Z,66.03
2023-03-06T02:16:30.114Z,66.06
2023-03-06T02:16:41.134Z,66.06
2023-03-06T02:16:51.930Z,66.03
2023-03-06T02:17:02.529Z,65.96
2023-03-06T02:17:13.511Z,65.96
2023-03-06T02:17:24.269Z,65.96
2023-03-06T02:17:35.329Z,65.96
2023-03-06T02:17:46.314Z,65.96
2023-03-06T02:17:57.301Z,65.96
2023-03-06T02:18:08.350Z,65.93
2023-03-06T02:18:19.318Z,65.96
2023-03-06T02:18:30.166Z,65.96
2023-03-06T02:18:41.164Z,65.96
2023-03-06T02:18:52.139Z,65.96
2023-03-06T02:19:02.918Z,65.96
2023-03-06T02:19:13.954Z,65.96
2023-03-06T02:19:24.938Z,65.96
2023-03-06T02:19:35.817Z,65.86
2023-03-06T02:19:46.282Z,65.86
2023-03-06T02:19:57.255Z,65.86
2023-03-06T02:20:08.023Z,65.86
2023-03-06T02:20:19.086Z,65.86
2023-03-06T02:20:30.077Z,65.86
2023-03-06T02:20:40.829Z,65.83